createdAt,value
2018-07-22T11:49:48.380Z,26.00
2018-07-22T11:52:16.738Z,26.10
2018-07-22T11:54:45.324Z,26.00
2018-07-22T11:57:13.925Z,26.10
2018-07-22T11:59:42.276Z,26.00
2018-07-22T12:02:11.500Z,26.00
2018-07-22T12:04:40.323Z,26.00
2018-07-22T12:07:08.750Z,26.00
2018-07-22T12:09:37.120Z,26.00
2018-07-22T12:12:06.535Z,26.00
2018-07-22T12:14:35.158Z,26.00
2018-07-22T12:17:03.515Z,26.00
2018-07-22T12:19:31.952Z,26.00
2018-07-22T12:22:00.316Z,26.00
2018-07-22T12:26:56.968Z,26.00
2018-07-22T12:29:25.351Z,26.00
2018-07-22T12:31:53.731Z,26.00
2018-07-22T12:34:22.302Z,26.00
2018-07-22T12:36:50.710Z,25.90
2018-07-22T12:39:19.172Z,25.90
2018-07-22T12:41:47.620Z,25.90
2018-07-22T12:44:16.079Z,25.90
2018-07-22T12:46:45.471Z,25.90
2018-07-22T12:49:14.063Z,25.90
2018-07-22T12:51:42.426Z,25.90
2018-07-22T12:54:10.915Z,25.90
2018-07-22T12:56:39.506Z,25.80
2018-07-22T12:59:07.922Z,25.80
2018-07-22T13:01:36.329Z,25.80
2018-07-22T13:04:04.803Z,25.80
2018-07-22T13:06:33.219Z,25.80
2018-07-22T13:09:01.634Z,25.80
2018-07-22T13:11:30.995Z,25.80
2018-07-22T13:13:59.401Z,25.80
2018-07-22T13:16:27.751Z,25.80
2018-07-22T13:18:56.211Z,25.70
2018-07-22T13:21:25.212Z,25.70
2018-07-22T13:23:53.559Z,25.80
2018-07-22T13:26:21.972Z,25.80
2018-07-22T13:28:50.354Z,25.80
2018-07-22T13:31:18.856Z,25.70
2018-07-22T13:33:47.398Z,25.80
2018-07-22T13:36:15.818Z,25.80
2018-07-22T13:38:44.196Z,25.80
2018-07-22T13:41:12.611Z,25.80
2018-07-22T13:43:41.786Z,25.80
2018-07-22T13:46:10.187Z,25.80
2018-07-22T13:48:39.527Z,25.80
2018-07-22T13:51:07.940Z,25.80
2018-07-22T13:53:36.397Z,25.80
2018-07-22T13:56:04.815Z,25.80
2018-07-22T13:58:33.252Z,25.80
2018-07-22T14:01:01.732Z,25.70
2018-07-22T14:03:30.127Z,25.70
2018-07-22T14:05:58.499Z,25.80
2018-07-22T14:08:26.991Z,25.80
2018-07-22T14:10:55.365Z,25.70
2018-07-22T14:13:23.772Z,25.80
2018-07-22T14:15:52.307Z,25.80
2018-07-22T14:18:20.658Z,25.80
2018-07-22T14:20:49.057Z,25.80
2018-07-22T14:23:17.491Z,25.80
2018-07-22T14:25:45.911Z,25.70
2018-07-22T14:28:14.383Z,25.80
2018-07-22T14:30:42.707Z,25.70
2018-07-22T14:33:11.068Z,25.70
2018-07-22T14:35:39.605Z,25.70
2018-07-22T14:38:08.173Z,25.70
2018-07-22T14:40:36.891Z,25.70
2018-07-22T14:43:05.692Z,25.70
2018-07-22T14:45:34.812Z,25.70
2018-07-22T14:48:03.343Z,25.70
2018-07-22T14:50:32.262Z,25.70
2018-07-22T14:53:00.917Z,25.70
2018-07-22T14:55:30.016Z,25.70
2018-07-22T14:57:58.433Z,25.70
2018-07-22T15:00:27.029Z,25.70
2018-07-22T15:02:55.450Z,25.70
2018-07-22T15:05:23.787Z,25.70
2018-07-22T15:07:52.184Z,25.70
2018-07-22T15:10:20.560Z,25.70
2018-07-22T15:12:49.023Z,25.70
2018-07-22T15:15:17.446Z,25.70
2018-07-22T15:17:45.902Z,25.70
2018-07-22T15:20:14.307Z,25.70
2018-07-22T15:22:43.642Z,25.70
2018-07-22T15:25:12.174Z,25.70
2018-07-22T15:27:40.531Z,25.70
2018-07-22T15:30:09.040Z,25.70
2018-07-22T15:32:38.605Z,25.60
2018-07-22T15:35:06.977Z,25.60
2018-07-22T15:37:35.353Z,25.70
2018-07-22T15:40:04.026Z,25.60
2018-07-22T15:42:32.612Z,25.70
2018-07-22T15:45:00.972Z,25.70
2018-07-22T15:47:30.202Z,25.70
2018-07-22T15:52:27.724Z,25.60
2018-07-22T15:54:56.402Z,25.60
2018-07-22T15:57:24.800Z,25.60
2018-07-22T15:59:53.543Z,25.60
2018-07-22T16:02:22.033Z,25.60
2018-07-22T16:04:50.429Z,25.60
2018-07-22T16:07:18.943Z,25.60
2018-07-22T16:09:47.351Z,25.60
2018-07-22T16:12:15.803Z,25.60
2018-07-22T16:14:44.296Z,25.60
2018-07-22T16:17:12.705Z,25.60
2018-07-22T16:19:41.105Z,25.60
2018-07-22T16:22:09.514Z,25.60
2018-07-22T16:24:38.810Z,25.60
2018-07-22T16:27:07.247Z,25.60
2018-07-22T16:32:04.254Z,25.50
2018-07-22T16:34:32.632Z,25.60
2018-07-22T16:37:01.889Z,25.60
2018-07-22T16:39:30.567Z,25.60
2018-07-22T16:41:59.581Z,25.60
2018-07-22T16:44:28.053Z,25.60
2018-07-22T16:46:56.515Z,25.50
2018-07-22T16:49:26.555Z,25.50
2018-07-22T16:51:54.955Z,25.50
2018-07-22T16:54:23.358Z,25.50
2018-07-22T16:56:51.784Z,25.50
2018-07-22T16:59:20.375Z,25.50
2018-07-22T17:01:48.735Z,25.50
2018-07-22T17:04:17.123Z,25.40
2018-07-22T17:06:45.552Z,25.40
2018-07-22T17:09:13.974Z,25.40
2018-07-22T17:11:42.440Z,25.40
2018-07-22T17:14:10.855Z,25.40
2018-07-22T17:16:39.254Z,25.40
2018-07-22T17:19:08.274Z,25.40
2018-07-22T17:21:37.802Z,25.40
2018-07-22T17:24:06.275Z,25.40
2018-07-22T17:26:34.650Z,25.40
2018-07-22T17:29:03.217Z,25.40
2018-07-22T17:31:31.696Z,25.40
2018-07-22T17:34:00.702Z,25.40
2018-07-22T17:36:29.968Z,25.30
2018-07-22T17:38:58.551Z,25.30
2018-07-22T17:41:27.088Z,25.30
2018-07-22T17:43:55.513Z,25.30
2018-07-22T17:46:24.003Z,25.30
2018-07-22T17:48:52.396Z,25.30
2018-07-22T17:51:20.842Z,25.30
2018-07-22T17:56:18.268Z,25.20
2018-07-22T17:58:46.733Z,25.20
2018-07-22T18:01:15.363Z,25.20
2018-07-22T18:03:43.825Z,25.20
2018-07-22T18:06:12.403Z,25.10
2018-07-22T18:08:40.891Z,25.10
2018-07-22T18:11:09.327Z,25.10
2018-07-22T18:13:37.751Z,25.10
2018-07-22T18:16:06.182Z,25.10
2018-07-22T18:18:34.634Z,25.10
2018-07-22T18:21:03.620Z,25.10
2018-07-22T18:23:32.000Z,25.00
2018-07-22T18:28:28.692Z,24.90
2018-07-22T18:30:57.060Z,24.90
2018-07-22T18:33:25.928Z,24.90
2018-07-22T18:38:22.859Z,24.90
2018-07-22T18:40:51.553Z,24.90
2018-07-22T18:43:19.959Z,24.90
2018-07-22T18:45:48.508Z,24.90
2018-07-22T18:48:17.202Z,24.90
2018-07-22T18:50:46.078Z,24.80
2018-07-22T18:53:14.764Z,24.80
2018-07-22T18:55:43.553Z,24.80
2018-07-22T18:58:12.450Z,24.70
2018-07-22T19:00:41.441Z,24.70
2018-07-22T19:03:10.229Z,24.70
2018-07-22T19:08:07.805Z,24.60
2018-07-22T19:10:36.805Z,24.60
2018-07-22T19:15:34.168Z,24.50
2018-07-22T19:18:03.066Z,24.50
2018-07-22T19:20:31.852Z,24.50
2018-07-22T19:23:00.638Z,24.40
2018-07-22T19:27:58.930Z,24.40
2018-07-22T19:30:28.841Z,24.30
2018-07-22T19:32:57.739Z,24.30
2018-07-22T19:35:26.635Z,24.30
2018-07-22T19:37:55.518Z,24.20
2018-07-22T19:40:25.451Z,24.30
2018-07-22T19:42:54.431Z,24.20
2018-07-22T19:45:23.430Z,24.20
2018-07-22T19:47:52.315Z,24.20
2018-07-22T19:50:21.210Z,24.10
2018-07-22T19:52:50.073Z,24.10
2018-07-22T19:55:19.089Z,24.10
2018-07-22T19:57:48.286Z,24.10
2018-07-22T20:00:17.320Z,24.10
2018-07-22T20:05:15.064Z,24.10
2018-07-22T20:07:43.906Z,24.00
2018-07-22T20:10:12.740Z,24.00
2018-07-22T20:12:41.859Z,24.00
2018-07-22T20:15:10.728Z,23.90
2018-07-22T20:17:39.620Z,23.90
2018-07-22T20:20:09.980Z,23.90
2018-07-22T20:22:39.187Z,23.90
2018-07-22T20:27:36.660Z,24.00
2018-07-22T20:30:05.588Z,24.00
2018-07-22T20:32:34.442Z,24.10
2018-07-22T20:35:02.840Z,24.10
2018-07-22T20:37:31.652Z,24.10
2018-07-22T20:40:00.396Z,24.20
2018-07-22T20:42:29.188Z,24.20
2018-07-22T20:44:57.632Z,24.20
2018-07-22T20:47:26.025Z,24.20
2018-07-22T20:49:54.465Z,24.20
2018-07-22T20:52:22.828Z,24.20
2018-07-22T20:54:51.662Z,24.20
2018-07-22T20:57:20.160Z,24.30
2018-07-22T20:59:48.631Z,24.30
2018-07-22T21:02:17.197Z,24.30
2018-07-22T21:04:45.664Z,24.30
2018-07-22T21:07:14.205Z,24.40
2018-07-22T21:09:42.597Z,24.40
2018-07-22T21:12:50.042Z,24.40
2018-07-22T21:15:19.470Z,24.40
2018-07-22T21:17:48.870Z,24.40
2018-07-22T21:20:18.279Z,24.40
2018-07-22T21:22:46.808Z,24.40
2018-07-22T21:25:15.720Z,24.40
2018-07-22T21:27:44.452Z,24.40
2018-07-22T21:30:13.393Z,24.40
2018-07-22T21:32:41.955Z,24.40
2018-07-22T21:37:38.944Z,24.40
2018-07-22T21:40:07.401Z,24.50
2018-07-22T21:42:35.919Z,24.40
2018-07-22T21:45:05.384Z,24.50
2018-07-22T21:47:34.042Z,24.50
2018-07-22T21:50:02.615Z,24.50
